This is the latest recevied weather packets stored in our database for station/object K6TTR. If no packets are shown the sender has not sent any weather packets the latest 10 day(s).
| Time | Temp. | Humidity | Pressure | Rain* | Wind** | Luminosity | Snow |
|---|---|---|---|---|---|---|---|
| 1778001222 | 14.44° C | 57% | 1013.9 hPa | 0 mm | - | 93 W/m² | - |
| 1778000929 | 14.44° C | 56% | 1013.9 hPa | 0 mm | - | 72 W/m² | - |
| 1778000616 | 13.89° C | 57% | 1014 hPa | 0 mm | - | 58 W/m² | - |
| 1778000321 | 13.89° C | 58% | 1013.9 hPa | 0 mm | - | 185 W/m² | - |
| 1778000025 | 13.89° C | 59% | 1013.9 hPa | 0 mm | - | 60 W/m² | - |
| 1777999730 | 13.33° C | 61% | 1013.9 hPa | 0 mm | - | 67 W/m² | - |
| 1777999414 | 13.33° C | 62% | 1013.8 hPa | 0 mm | - | 83 W/m² | - |
| 1777999119 | 12.78° C | 63% | 1013.7 hPa | 0 mm | - | 58 W/m² | - |
| 1777998824 | 12.22° C | 68% | 1013.8 hPa | 0 mm | - | 550 W/m² | - |
| 1777998528 | 11.67° C | 72% | 1013.7 hPa | 0 mm | - | 601 W/m² | - |
| 1777998212 | 11.11° C | 72% | 1013.7 hPa | 0 mm | - | 178 W/m² | - |
| 1777997914 | 11.11° C | 73% | 1013.7 hPa | 0 mm | - | 58 W/m² | - |
| 1777997620 | 11.11° C | 73% | 1013.9 hPa | 0 mm | - | 60 W/m² | - |
| 1777997324 | 10.56° C | 75% | 1013.8 hPa | 0 mm | - | 65 W/m² | - |
| 1777997031 | 10.56° C | 77% | 1013.8 hPa | 0 mm | - | 323 W/m² | - |
| 1777996714 | 10° C | 78% | 1013.8 hPa | 0 mm | - | 380 W/m² | - |
| 1777996418 | 10° C | 79% | 1013.8 hPa | 0 mm | - | 241 W/m² | - |
| 1777996119 | 9.44° C | 80% | 1013.8 hPa | 0 mm | - | 432 W/m² | - |
| 1777995825 | 9.44° C | 82% | 1013.9 hPa | 0 mm | - | 455 W/m² | - |
| 1777995530 | 8.89° C | 83% | 1013.9 hPa | 0 mm | - | 441 W/m² | - |
| 1777995214 | 8.33° C | 84% | 1013.9 hPa | 0 mm | - | 374 W/m² | - |
| 1777994919 | 8.33° C | 87% | 1013.8 hPa | 0 mm | - | 186 W/m² | - |
| 1777994624 | 7.78° C | 88% | 1013.8 hPa | 0 mm | - | 350 W/m² | - |
| 1777994329 | 7.78° C | 88% | 1013.8 hPa | 0 mm | - | 70 W/m² | - |
| 1777994031 | 7.78° C | 88% | 1013.9 hPa | 0 mm | - | 49 W/m² | - |
* Rain latest hour (hover to see other rain measurements)
** Current wind speed in m/s (hover to see current wind gust speed)